sensor_id;sensor_type;location;lat;lon;timestamp;P1;durP1;ratioP1;P2;durP2;ratioP2
49948;SDS011;35840;45.982;8.890;2024-03-08T00:00:06;10.63;;;5.32;;
49948;SDS011;35840;45.982;8.890;2024-03-08T00:02:41;7.40;;;5.15;;
49948;SDS011;35840;45.982;8.890;2024-03-08T00:05:09;8.90;;;5.15;;
49948;SDS011;35840;45.982;8.890;2024-03-08T00:07:36;13.02;;;6.10;;
49948;SDS011;35840;45.982;8.890;2024-03-08T00:10:03;12.98;;;5.30;;
49948;SDS011;35840;45.982;8.890;2024-03-08T00:12:31;13.35;;;5.63;;
49948;SDS011;35840;45.982;8.890;2024-03-08T00:14:58;8.75;;;5.10;;
49948;SDS011;35840;45.982;8.890;2024-03-08T00:17:25;9.60;;;4.90;;
49948;SDS011;35840;45.982;8.890;2024-03-08T00:19:53;8.90;;;5.32;;
49948;SDS011;35840;45.982;8.890;2024-03-08T00:22:20;7.20;;;5.57;;
49948;SDS011;35840;45.982;8.890;2024-03-08T00:24:48;12.75;;;5.88;;
49948;SDS011;35840;45.982;8.890;2024-03-08T00:27:17;13.70;;;6.25;;
49948;SDS011;35840;45.982;8.890;2024-03-08T00:29:47;10.27;;;6.15;;
49948;SDS011;35840;45.982;8.890;2024-03-08T00:32:14;8.20;;;5.05;;
49948;SDS011;35840;45.982;8.890;2024-03-08T00:34:41;9.27;;;5.70;;
49948;SDS011;35840;45.982;8.890;2024-03-08T00:37:09;8.73;;;5.43;;
49948;SDS011;35840;45.982;8.890;2024-03-08T00:39:36;14.20;;;5.93;;
49948;SDS011;35840;45.982;8.890;2024-03-08T00:42:03;6.88;;;5.25;;
49948;SDS011;35840;45.982;8.890;2024-03-08T00:44:30;10.27;;;5.95;;
49948;SDS011;35840;45.982;8.890;2024-03-08T00:46:58;7.72;;;5.70;;
49948;SDS011;35840;45.982;8.890;2024-03-08T00:49:25;12.52;;;5.38;;
49948;SDS011;35840;45.982;8.890;2024-03-08T00:51:52;9.18;;;5.95;;
49948;SDS011;35840;45.982;8.890;2024-03-08T00:54:19;11.50;;;6.13;;
49948;SDS011;35840;45.982;8.890;2024-03-08T00:56:46;10.52;;;6.40;;
49948;SDS011;35840;45.982;8.890;2024-03-08T00:59:13;8.32;;;5.82;;
49948;SDS011;35840;45.982;8.890;2024-03-08T01:01:40;11.40;;;5.65;;
49948;SDS011;35840;45.982;8.890;2024-03-08T01:04:07;9.30;;;6.18;;
49948;SDS011;35840;45.982;8.890;2024-03-08T01:06:34;8.70;;;6.10;;
49948;SDS011;35840;45.982;8.890;2024-03-08T01:09:01;11.55;;;6.50;;
49948;SDS011;35840;45.982;8.890;2024-03-08T01:11:28;11.85;;;7.18;;
49948;SDS011;35840;45.982;8.890;2024-03-08T01:13:55;11.70;;;5.95;;
49948;SDS011;35840;45.982;8.890;2024-03-08T01:16:22;9.13;;;6.88;;
49948;SDS011;35840;45.982;8.890;2024-03-08T01:18:49;11.02;;;6.95;;
49948;SDS011;35840;45.982;8.890;2024-03-08T01:21:16;17.40;;;8.02;;
49948;SDS011;35840;45.982;8.890;2024-03-08T01:23:43;10.15;;;7.70;;
49948;SDS011;35840;45.982;8.890;2024-03-08T01:26:10;13.48;;;7.50;;
49948;SDS011;35840;45.982;8.890;2024-03-08T01:28:37;10.85;;;8.02;;
49948;SDS011;35840;45.982;8.890;2024-03-08T01:31:04;11.40;;;8.20;;
49948;SDS011;35840;45.982;8.890;2024-03-08T01:33:32;16.20;;;9.25;;
49948;SDS011;35840;45.982;8.890;2024-03-08T01:35:59;13.30;;;9.00;;
49948;SDS011;35840;45.982;8.890;2024-03-08T01:38:26;16.00;;;9.23;;
49948;SDS011;35840;45.982;8.890;2024-03-08T01:40:53;16.05;;;9.85;;
49948;SDS011;35840;45.982;8.890;2024-03-08T01:43:21;14.38;;;9.93;;
49948;SDS011;35840;45.982;8.890;2024-03-08T01:45:55;18.65;;;8.63;;
49948;SDS011;35840;45.982;8.890;2024-03-08T01:48:28;15.18;;;9.23;;
49948;SDS011;35840;45.982;8.890;2024-03-08T01:50:58;13.90;;;9.27;;
49948;SDS011;35840;45.982;8.890;2024-03-08T01:53:26;14.85;;;7.72;;
49948;SDS011;35840;45.982;8.890;2024-03-08T01:55:56;13.10;;;8.55;;
49948;SDS011;35840;45.982;8.890;2024-03-08T01:58:24;11.95;;;8.07;;
49948;SDS011;35840;45.982;8.890;2024-03-08T02:00:54;11.35;;;8.35;;
49948;SDS011;35840;45.982;8.890;2024-03-08T02:03:23;15.27;;;9.23;;
49948;SDS011;35840;45.982;8.890;2024-03-08T02:05:50;15.48;;;9.20;;
49948;SDS011;35840;45.982;8.890;2024-03-08T02:08:18;11.57;;;7.80;;
49948;SDS011;35840;45.982;8.890;2024-03-08T02:10:49;14.35;;;8.88;;
49948;SDS011;35840;45.982;8.890;2024-03-08T02:13:17;16.33;;;8.35;;
49948;SDS011;35840;45.982;8.890;2024-03-08T02:18:19;13.77;;;8.07;;
49948;SDS011;35840;45.982;8.890;2024-03-08T02:20:49;13.65;;;8.63;;
49948;SDS011;35840;45.982;8.890;2024-03-08T02:23:21;13.65;;;8.05;;
49948;SDS011;35840;45.982;8.890;2024-03-08T02:25:48;11.02;;;8.82;;
49948;SDS011;35840;45.982;8.890;2024-03-08T02:28:15;16.60;;;8.90;;
49948;SDS011;35840;45.982;8.890;2024-03-08T02:30:45;12.02;;;8.45;;
49948;SDS011;35840;45.982;8.890;2024-03-08T02:33:17;11.27;;;7.97;;
49948;SDS011;35840;45.982;8.890;2024-03-08T02:35:45;13.88;;;7.97;;
49948;SDS011;35840;45.982;8.890;2024-03-08T02:38:13;11.70;;;7.50;;
49948;SDS011;35840;45.982;8.890;2024-03-08T02:40:47;9.50;;;7.10;;
49948;SDS011;35840;45.982;8.890;2024-03-08T02:43:16;10.75;;;7.40;;
49948;SDS011;35840;45.982;8.890;2024-03-08T02:45:44;12.90;;;8.57;;
49948;SDS011;35840;45.982;8.890;2024-03-08T02:48:14;13.25;;;7.63;;
49948;SDS011;35840;45.982;8.890;2024-03-08T02:50:43;11.63;;;7.88;;
49948;SDS011;35840;45.982;8.890;2024-03-08T02:53:11;15.20;;;8.07;;
49948;SDS011;35840;45.982;8.890;2024-03-08T02:55:39;12.73;;;8.10;;
49948;SDS011;35840;45.982;8.890;2024-03-08T02:58:08;13.43;;;8.65;;
49948;SDS011;35840;45.982;8.890;2024-03-08T03:00:37;14.43;;;8.30;;
49948;SDS011;35840;45.982;8.890;2024-03-08T03:03:05;12.32;;;8.85;;
49948;SDS011;35840;45.982;8.890;2024-03-08T03:05:33;11.40;;;8.27;;
49948;SDS011;35840;45.982;8.890;2024-03-08T03:08:00;16.15;;;9.52;;
49948;SDS011;35840;45.982;8.890;2024-03-08T03:10:27;11.57;;;7.53;;
49948;SDS011;35840;45.982;8.890;2024-03-08T03:12:54;13.40;;;7.78;;
49948;SDS011;35840;45.982;8.890;2024-03-08T03:15:21;16.42;;;8.50;;
49948;SDS011;35840;45.982;8.890;2024-03-08T03:17:53;13.38;;;8.93;;
49948;SDS011;35840;45.982;8.890;2024-03-08T03:20:20;14.70;;;8.25;;
49948;SDS011;35840;45.982;8.890;2024-03-08T03:22:53;16.60;;;9.20;;
49948;SDS011;35840;45.982;8.890;2024-03-08T03:25:20;15.75;;;9.23;;
49948;SDS011;35840;45.982;8.890;2024-03-08T03:28:00;17.85;;;9.40;;
49948;SDS011;35840;45.982;8.890;2024-03-08T03:30:27;16.23;;;10.07;;
49948;SDS011;35840;45.982;8.890;2024-03-08T03:33:00;16.92;;;9.30;;
49948;SDS011;35840;45.982;8.890;2024-03-08T03:35:28;20.60;;;10.27;;
49948;SDS011;35840;45.982;8.890;2024-03-08T03:37:58;15.07;;;11.45;;
49948;SDS011;35840;45.982;8.890;2024-03-08T03:40:37;18.05;;;9.93;;
49948;SDS011;35840;45.982;8.890;2024-03-08T03:43:04;17.10;;;10.60;;
49948;SDS011;35840;45.982;8.890;2024-03-08T03:45:32;18.90;;;11.60;;
49948;SDS011;35840;45.982;8.890;2024-03-08T03:48:04;20.42;;;12.43;;
49948;SDS011;35840;45.982;8.890;2024-03-08T03:50:33;20.05;;;12.45;;
49948;SDS011;35840;45.982;8.890;2024-03-08T03:53:02;20.08;;;13.43;;
49948;SDS011;35840;45.982;8.890;2024-03-08T03:55:30;18.27;;;12.18;;
49948;SDS011;35840;45.982;8.890;2024-03-08T03:57:56;16.77;;;11.57;;
49948;SDS011;35840;45.982;8.890;2024-03-08T04:00:26;21.75;;;11.70;;
49948;SDS011;35840;45.982;8.890;2024-03-08T04:02:54;22.45;;;12.75;;
49948;SDS011;35840;45.982;8.890;2024-03-08T04:05:21;23.77;;;11.60;;
49948;SDS011;35840;45.982;8.890;2024-03-08T04:07:48;21.48;;;12.27;;
49948;SDS011;35840;45.982;8.890;2024-03-08T04:10:15;18.48;;;12.63;;
49948;SDS011;35840;45.982;8.890;2024-03-08T04:12:42;24.27;;;14.60;;
49948;SDS011;35840;45.982;8.890;2024-03-08T04:15:09;26.90;;;16.95;;
49948;SDS011;35840;45.982;8.890;2024-03-08T04:17:38;24.35;;;15.52;;
49948;SDS011;35840;45.982;8.890;2024-03-08T04:20:05;23.73;;;16.10;;
49948;SDS011;35840;45.982;8.890;2024-03-08T04:22:44;23.25;;;16.20;;
49948;SDS011;35840;45.982;8.890;2024-03-08T04:25:13;28.52;;;16.55;;
49948;SDS011;35840;45.982;8.890;2024-03-08T04:27:40;26.70;;;17.90;;
49948;SDS011;35840;45.982;8.890;2024-03-08T04:30:08;24.42;;;16.92;;
49948;SDS011;35840;45.982;8.890;2024-03-08T04:32:35;24.23;;;17.48;;
49948;SDS011;35840;45.982;8.890;2024-03-08T04:35:02;25.27;;;16.75;;
49948;SDS011;35840;45.982;8.890;2024-03-08T04:37:30;23.58;;;16.80;;
49948;SDS011;35840;45.982;8.890;2024-03-08T04:39:57;22.67;;;16.05;;
49948;SDS011;35840;45.982;8.890;2024-03-08T04:42:24;26.33;;;17.70;;
49948;SDS011;35840;45.982;8.890;2024-03-08T04:44:52;30.65;;;17.20;;
49948;SDS011;35840;45.982;8.890;2024-03-08T04:47:20;26.48;;;17.55;;
49948;SDS011;35840;45.982;8.890;2024-03-08T04:49:47;26.85;;;16.83;;
49948;SDS011;35840;45.982;8.890;2024-03-08T04:52:14;24.35;;;17.13;;
49948;SDS011;35840;45.982;8.890;2024-03-08T04:54:41;27.27;;;16.55;;
49948;SDS011;35840;45.982;8.890;2024-03-08T04:57:07;24.25;;;15.93;;
49948;SDS011;35840;45.982;8.890;2024-03-08T04:59:35;20.40;;;14.70;;
49948;SDS011;35840;45.982;8.890;2024-03-08T05:02:03;25.27;;;16.83;;
49948;SDS011;35840;45.982;8.890;2024-03-08T05:04:30;22.55;;;15.75;;
49948;SDS011;35840;45.982;8.890;2024-03-08T05:06:57;26.17;;;15.80;;
49948;SDS011;35840;45.982;8.890;2024-03-08T05:09:27;24.77;;;15.45;;
49948;SDS011;35840;45.982;8.890;2024-03-08T05:11:58;29.35;;;15.90;;
49948;SDS011;35840;45.982;8.890;2024-03-08T05:14:25;26.23;;;15.98;;
49948;SDS011;35840;45.982;8.890;2024-03-08T05:16:52;24.80;;;15.18;;
49948;SDS011;35840;45.982;8.890;2024-03-08T05:19:19;25.30;;;16.63;;
49948;SDS011;35840;45.982;8.890;2024-03-08T05:21:47;26.13;;;16.90;;
49948;SDS011;35840;45.982;8.890;2024-03-08T05:24:15;26.92;;;17.58;;
49948;SDS011;35840;45.982;8.890;2024-03-08T05:26:44;27.60;;;17.30;;
49948;SDS011;35840;45.982;8.890;2024-03-08T05:29:13;27.58;;;18.58;;
49948;SDS011;35840;45.982;8.890;2024-03-08T05:31:48;28.25;;;18.80;;
49948;SDS011;35840;45.982;8.890;2024-03-08T05:34:17;26.92;;;16.92;;
49948;SDS011;35840;45.982;8.890;2024-03-08T05:36:45;27.08;;;17.13;;
49948;SDS011;35840;45.982;8.890;2024-03-08T05:39:13;28.63;;;16.63;;
49948;SDS011;35840;45.982;8.890;2024-03-08T05:41:41;23.45;;;15.90;;
49948;SDS011;35840;45.982;8.890;2024-03-08T05:44:09;32.00;;;18.20;;
49948;SDS011;35840;45.982;8.890;2024-03-08T05:46:36;30.70;;;17.73;;
49948;SDS011;35840;45.982;8.890;2024-03-08T05:49:05;34.45;;;18.67;;
49948;SDS011;35840;45.982;8.890;2024-03-08T05:51:33;31.45;;;19.20;;
49948;SDS011;35840;45.982;8.890;2024-03-08T05:54:05;24.13;;;16.17;;
49948;SDS011;35840;45.982;8.890;2024-03-08T05:56:36;30.25;;;18.67;;
49948;SDS011;35840;45.982;8.890;2024-03-08T05:59:03;25.85;;;17.25;;
49948;SDS011;35840;45.982;8.890;2024-03-08T06:01:30;34.00;;;18.85;;
49948;SDS011;35840;45.982;8.890;2024-03-08T06:03:57;25.40;;;16.75;;
49948;SDS011;35840;45.982;8.890;2024-03-08T06:06:25;26.45;;;17.33;;
49948;SDS011;35840;45.982;8.890;2024-03-08T06:08:52;28.67;;;17.38;;
49948;SDS011;35840;45.982;8.890;2024-03-08T06:11:19;21.83;;;15.73;;
49948;SDS011;35840;45.982;8.890;2024-03-08T06:13:47;25.77;;;16.77;;
49948;SDS011;35840;45.982;8.890;2024-03-08T06:16:14;25.75;;;16.52;;
49948;SDS011;35840;45.982;8.890;2024-03-08T06:18:41;24.75;;;16.90;;
49948;SDS011;35840;45.982;8.890;2024-03-08T06:21:09;24.70;;;17.02;;
49948;SDS011;35840;45.982;8.890;2024-03-08T06:23:38;30.42;;;18.80;;
49948;SDS011;35840;45.982;8.890;2024-03-08T06:26:05;27.27;;;17.38;;
49948;SDS011;35840;45.982;8.890;2024-03-08T06:28:32;26.65;;;17.15;;
49948;SDS011;35840;45.982;8.890;2024-03-08T06:31:00;23.27;;;15.65;;
49948;SDS011;35840;45.982;8.890;2024-03-08T06:33:27;24.25;;;15.48;;
49948;SDS011;35840;45.982;8.890;2024-03-08T06:35:54;21.65;;;14.60;;
49948;SDS011;35840;45.982;8.890;2024-03-08T06:38:24;22.63;;;14.80;;
49948;SDS011;35840;45.982;8.890;2024-03-08T06:40:52;22.27;;;15.07;;
49948;SDS011;35840;45.982;8.890;2024-03-08T06:43:19;23.52;;;15.98;;
49948;SDS011;35840;45.982;8.890;2024-03-08T06:45:46;25.25;;;16.90;;
49948;SDS011;35840;45.982;8.890;2024-03-08T06:48:16;31.00;;;16.90;;
49948;SDS011;35840;45.982;8.890;2024-03-08T06:50:46;26.73;;;16.25;;
49948;SDS011;35840;45.982;8.890;2024-03-08T06:53:14;27.50;;;17.48;;
49948;SDS011;35840;45.982;8.890;2024-03-08T06:55:42;24.60;;;16.20;;
49948;SDS011;35840;45.982;8.890;2024-03-08T06:58:08;22.35;;;15.23;;
49948;SDS011;35840;45.982;8.890;2024-03-08T07:00:37;30.02;;;16.55;;
49948;SDS011;35840;45.982;8.890;2024-03-08T07:03:07;22.73;;;14.25;;
49948;SDS011;35840;45.982;8.890;2024-03-08T07:05:36;21.95;;;13.88;;
49948;SDS011;35840;45.982;8.890;2024-03-08T07:08:02;26.77;;;16.40;;
49948;SDS011;35840;45.982;8.890;2024-03-08T07:10:30;23.45;;;15.23;;
49948;SDS011;35840;45.982;8.890;2024-03-08T07:12:56;26.40;;;15.55;;
49948;SDS011;35840;45.982;8.890;2024-03-08T07:15:23;23.90;;;14.70;;
49948;SDS011;35840;45.982;8.890;2024-03-08T07:17:50;23.88;;;14.95;;
49948;SDS011;35840;45.982;8.890;2024-03-08T07:20:19;25.95;;;16.88;;
49948;SDS011;35840;45.982;8.890;2024-03-08T07:22:46;22.33;;;15.50;;
49948;SDS011;35840;45.982;8.890;2024-03-08T07:25:14;23.17;;;14.93;;
49948;SDS011;35840;45.982;8.890;2024-03-08T07:27:51;24.58;;;14.65;;
49948;SDS011;35840;45.982;8.890;2024-03-08T07:30:20;26.27;;;16.88;;
49948;SDS011;35840;45.982;8.890;2024-03-08T07:33:06;26.27;;;16.10;;
49948;SDS011;35840;45.982;8.890;2024-03-08T07:35:34;24.45;;;13.30;;
49948;SDS011;35840;45.982;8.890;2024-03-08T07:38:04;26.63;;;15.90;;
49948;SDS011;35840;45.982;8.890;2024-03-08T07:40:34;24.77;;;15.00;;
49948;SDS011;35840;45.982;8.890;2024-03-08T07:43:11;24.63;;;15.77;;
49948;SDS011;35840;45.982;8.890;2024-03-08T07:45:38;28.15;;;15.80;;
49948;SDS011;35840;45.982;8.890;2024-03-08T07:48:06;27.08;;;14.32;;
49948;SDS011;35840;45.982;8.890;2024-03-08T07:50:37;21.10;;;14.43;;
49948;SDS011;35840;45.982;8.890;2024-03-08T07:53:06;28.08;;;16.13;;
49948;SDS011;35840;45.982;8.890;2024-03-08T07:55:34;25.08;;;15.88;;
49948;SDS011;35840;45.982;8.890;2024-03-08T07:58:02;22.75;;;15.45;;
49948;SDS011;35840;45.982;8.890;2024-03-08T08:00:29;24.15;;;15.27;;
49948;SDS011;35840;45.982;8.890;2024-03-08T08:02:58;27.17;;;16.05;;
49948;SDS011;35840;45.982;8.890;2024-03-08T08:05:25;22.35;;;15.45;;
49948;SDS011;35840;45.982;8.890;2024-03-08T08:07:52;25.60;;;15.90;;
49948;SDS011;35840;45.982;8.890;2024-03-08T08:10:20;22.67;;;14.23;;
49948;SDS011;35840;45.982;8.890;2024-03-08T08:12:52;26.75;;;15.60;;
49948;SDS011;35840;45.982;8.890;2024-03-08T08:15:19;24.67;;;15.32;;
49948;SDS011;35840;45.982;8.890;2024-03-08T08:17:46;21.55;;;14.15;;
49948;SDS011;35840;45.982;8.890;2024-03-08T08:20:18;20.73;;;14.18;;
49948;SDS011;35840;45.982;8.890;2024-03-08T08:22:45;21.83;;;13.60;;
49948;SDS011;35840;45.982;8.890;2024-03-08T08:25:12;22.75;;;14.82;;
49948;SDS011;35840;45.982;8.890;2024-03-08T08:27:40;21.15;;;13.45;;
49948;SDS011;35840;45.982;8.890;2024-03-08T08:30:07;23.50;;;15.20;;
49948;SDS011;35840;45.982;8.890;2024-03-08T08:32:35;21.35;;;14.25;;
49948;SDS011;35840;45.982;8.890;2024-03-08T08:35:11;23.50;;;15.27;;
49948;SDS011;35840;45.982;8.890;2024-03-08T08:37:39;23.77;;;14.73;;
49948;SDS011;35840;45.982;8.890;2024-03-08T08:40:06;22.70;;;14.75;;
49948;SDS011;35840;45.982;8.890;2024-03-08T08:42:41;21.30;;;14.07;;
49948;SDS011;35840;45.982;8.890;2024-03-08T08:45:08;20.50;;;14.20;;
49948;SDS011;35840;45.982;8.890;2024-03-08T08:47:45;20.52;;;13.38;;
49948;SDS011;35840;45.982;8.890;2024-03-08T08:50:13;19.00;;;12.98;;
49948;SDS011;35840;45.982;8.890;2024-03-08T08:52:40;19.85;;;13.32;;
49948;SDS011;35840;45.982;8.890;2024-03-08T08:55:10;20.60;;;12.50;;
49948;SDS011;35840;45.982;8.890;2024-03-08T08:57:41;20.30;;;13.25;;
49948;SDS011;35840;45.982;8.890;2024-03-08T09:00:09;20.00;;;12.90;;
49948;SDS011;35840;45.982;8.890;2024-03-08T09:02:42;21.75;;;13.25;;
49948;SDS011;35840;45.982;8.890;2024-03-08T09:05:09;21.77;;;12.13;;
49948;SDS011;35840;45.982;8.890;2024-03-08T09:07:37;20.38;;;11.98;;
49948;SDS011;35840;45.982;8.890;2024-03-08T09:10:04;23.10;;;13.65;;
49948;SDS011;35840;45.982;8.890;2024-03-08T09:12:34;22.10;;;13.40;;
49948;SDS011;35840;45.982;8.890;2024-03-08T09:15:01;22.27;;;11.63;;
49948;SDS011;35840;45.982;8.890;2024-03-08T09:17:28;21.05;;;12.55;;
49948;SDS011;35840;45.982;8.890;2024-03-08T09:19:55;20.13;;;13.57;;
49948;SDS011;35840;45.982;8.890;2024-03-08T09:22:23;19.00;;;13.15;;
49948;SDS011;35840;45.982;8.890;2024-03-08T09:24:50;21.13;;;13.83;;
49948;SDS011;35840;45.982;8.890;2024-03-08T09:27:17;21.23;;;13.57;;
49948;SDS011;35840;45.982;8.890;2024-03-08T09:29:44;20.08;;;13.52;;
49948;SDS011;35840;45.982;8.890;2024-03-08T09:32:11;20.58;;;13.45;;
49948;SDS011;35840;45.982;8.890;2024-03-08T09:34:38;21.40;;;13.05;;
49948;SDS011;35840;45.982;8.890;2024-03-08T09:37:05;23.17;;;13.00;;
49948;SDS011;35840;45.982;8.890;2024-03-08T09:39:33;21.13;;;13.20;;
49948;SDS011;35840;45.982;8.890;2024-03-08T09:42:00;22.23;;;13.73;;
49948;SDS011;35840;45.982;8.890;2024-03-08T09:44:28;20.88;;;13.20;;
49948;SDS011;35840;45.982;8.890;2024-03-08T09:46:58;18.30;;;12.90;;
49948;SDS011;35840;45.982;8.890;2024-03-08T09:49:25;20.45;;;13.70;;
49948;SDS011;35840;45.982;8.890;2024-03-08T09:51:52;19.55;;;12.18;;
49948;SDS011;35840;45.982;8.890;2024-03-08T09:54:20;19.45;;;12.38;;
49948;SDS011;35840;45.982;8.890;2024-03-08T09:56:51;19.35;;;14.48;;
49948;SDS011;35840;45.982;8.890;2024-03-08T09:59:18;17.83;;;12.55;;
49948;SDS011;35840;45.982;8.890;2024-03-08T10:01:48;20.55;;;14.13;;
49948;SDS011;35840;45.982;8.890;2024-03-08T10:04:15;22.08;;;12.88;;
49948;SDS011;35840;45.982;8.890;2024-03-08T10:06:43;18.85;;;12.32;;
49948;SDS011;35840;45.982;8.890;2024-03-08T10:09:13;20.15;;;13.50;;
49948;SDS011;35840;45.982;8.890;2024-03-08T10:11:40;20.90;;;12.18;;
49948;SDS011;35840;45.982;8.890;2024-03-08T10:14:08;18.98;;;12.35;;
49948;SDS011;35840;45.982;8.890;2024-03-08T10:16:40;21.20;;;13.27;;
49948;SDS011;35840;45.982;8.890;2024-03-08T10:19:07;22.63;;;13.02;;
49948;SDS011;35840;45.982;8.890;2024-03-08T10:21:36;25.08;;;12.27;;
49948;SDS011;35840;45.982;8.890;2024-03-08T10:24:13;22.23;;;13.43;;
49948;SDS011;35840;45.982;8.890;2024-03-08T10:26:40;24.20;;;13.02;;
49948;SDS011;35840;45.982;8.890;2024-03-08T10:29:10;20.95;;;13.27;;
49948;SDS011;35840;45.982;8.890;2024-03-08T10:31:45;20.63;;;12.88;;
49948;SDS011;35840;45.982;8.890;2024-03-08T10:34:12;19.48;;;11.90;;
49948;SDS011;35840;45.982;8.890;2024-03-08T10:36:39;19.88;;;12.13;;
49948;SDS011;35840;45.982;8.890;2024-03-08T10:39:10;19.90;;;12.68;;
49948;SDS011;35840;45.982;8.890;2024-03-08T10:41:57;17.63;;;11.38;;
49948;SDS011;35840;45.982;8.890;2024-03-08T10:47:18;16.42;;;11.10;;
49948;SDS011;35840;45.982;8.890;2024-03-08T10:49:54;18.33;;;12.23;;
49948;SDS011;35840;45.982;8.890;2024-03-08T10:52:22;16.63;;;11.30;;
49948;SDS011;35840;45.982;8.890;2024-03-08T10:54:49;19.17;;;12.52;;
49948;SDS011;35840;45.982;8.890;2024-03-08T10:57:19;20.35;;;12.38;;
49948;SDS011;35840;45.982;8.890;2024-03-08T10:59:47;16.20;;;11.45;;
49948;SDS011;35840;45.982;8.890;2024-03-08T11:02:16;19.83;;;11.23;;
49948;SDS011;35840;45.982;8.890;2024-03-08T11:04:46;17.98;;;12.00;;
49948;SDS011;35840;45.982;8.890;2024-03-08T11:07:16;18.35;;;11.23;;
49948;SDS011;35840;45.982;8.890;2024-03-08T11:09:47;21.73;;;12.77;;
49948;SDS011;35840;45.982;8.890;2024-03-08T11:14:52;17.17;;;10.82;;
49948;SDS011;35840;45.982;8.890;2024-03-08T11:17:44;20.23;;;12.43;;
49948;SDS011;35840;45.982;8.890;2024-03-08T11:20:12;15.98;;;11.07;;
49948;SDS011;35840;45.982;8.890;2024-03-08T11:22:43;20.60;;;11.45;;
49948;SDS011;35840;45.982;8.890;2024-03-08T11:25:32;16.45;;;10.57;;
49948;SDS011;35840;45.982;8.890;2024-03-08T11:28:20;17.25;;;11.32;;
49948;SDS011;35840;45.982;8.890;2024-03-08T11:33:29;18.63;;;10.82;;
49948;SDS011;35840;45.982;8.890;2024-03-08T11:38:41;18.77;;;10.73;;
49948;SDS011;35840;45.982;8.890;2024-03-08T11:41:11;18.17;;;11.32;;
49948;SDS011;35840;45.982;8.890;2024-03-08T11:43:45;13.50;;;9.52;;
49948;SDS011;35840;45.982;8.890;2024-03-08T11:46:13;15.65;;;10.77;;
49948;SDS011;35840;45.982;8.890;2024-03-08T11:48:41;15.45;;;10.38;;
49948;SDS011;35840;45.982;8.890;2024-03-08T11:51:13;18.95;;;10.93;;
49948;SDS011;35840;45.982;8.890;2024-03-08T11:53:41;17.13;;;9.90;;
49948;SDS011;35840;45.982;8.890;2024-03-08T11:56:13;18.17;;;11.18;;
49948;SDS011;35840;45.982;8.890;2024-03-08T11:58:41;15.55;;;10.32;;
49948;SDS011;35840;45.982;8.890;2024-03-08T12:01:09;13.57;;;8.82;;
49948;SDS011;35840;45.982;8.890;2024-03-08T12:03:40;14.98;;;8.30;;
49948;SDS011;35840;45.982;8.890;2024-03-08T12:06:09;14.50;;;9.45;;
49948;SDS011;35840;45.982;8.890;2024-03-08T12:08:37;13.82;;;9.20;;
49948;SDS011;35840;45.982;8.890;2024-03-08T12:11:04;17.83;;;9.95;;
49948;SDS011;35840;45.982;8.890;2024-03-08T12:13:31;16.00;;;9.38;;
49948;SDS011;35840;45.982;8.890;2024-03-08T12:16:02;12.25;;;9.07;;
49948;SDS011;35840;45.982;8.890;2024-03-08T12:18:33;17.05;;;9.73;;
49948;SDS011;35840;45.982;8.890;2024-03-08T12:21:07;15.75;;;9.75;;
49948;SDS011;35840;45.982;8.890;2024-03-08T12:23:37;15.85;;;9.85;;
49948;SDS011;35840;45.982;8.890;2024-03-08T12:28:45;13.38;;;8.63;;
49948;SDS011;35840;45.982;8.890;2024-03-08T12:31:16;17.50;;;10.30;;
49948;SDS011;35840;45.982;8.890;2024-03-08T12:33:49;13.35;;;8.98;;
49948;SDS011;35840;45.982;8.890;2024-03-08T12:36:22;15.07;;;9.43;;
49948;SDS011;35840;45.982;8.890;2024-03-08T12:38:49;15.73;;;9.98;;
49948;SDS011;35840;45.982;8.890;2024-03-08T12:41:16;16.42;;;9.30;;
49948;SDS011;35840;45.982;8.890;2024-03-08T12:43:45;17.83;;;9.98;;
49948;SDS011;35840;45.982;8.890;2024-03-08T12:46:15;15.73;;;9.70;;
49948;SDS011;35840;45.982;8.890;2024-03-08T12:48:42;14.50;;;9.00;;
49948;SDS011;35840;45.982;8.890;2024-03-08T12:51:16;17.60;;;9.95;;
49948;SDS011;35840;45.982;8.890;2024-03-08T12:53:45;18.60;;;10.18;;
49948;SDS011;35840;45.982;8.890;2024-03-08T12:56:19;17.17;;;10.02;;
49948;SDS011;35840;45.982;8.890;2024-03-08T12:58:55;14.40;;;9.82;;
49948;SDS011;35840;45.982;8.890;2024-03-08T13:01:22;15.63;;;10.15;;
49948;SDS011;35840;45.982;8.890;2024-03-08T13:03:49;15.13;;;10.05;;
49948;SDS011;35840;45.982;8.890;2024-03-08T13:06:16;16.05;;;10.30;;
49948;SDS011;35840;45.982;8.890;2024-03-08T13:08:43;14.88;;;10.13;;
49948;SDS011;35840;45.982;8.890;2024-03-08T13:11:10;16.65;;;10.63;;
49948;SDS011;35840;45.982;8.890;2024-03-08T13:13:40;17.48;;;10.65;;
49948;SDS011;35840;45.982;8.890;2024-03-08T13:16:08;16.10;;;10.18;;
49948;SDS011;35840;45.982;8.890;2024-03-08T13:18:35;14.45;;;9.90;;
49948;SDS011;35840;45.982;8.890;2024-03-08T13:21:03;18.23;;;10.55;;
49948;SDS011;35840;45.982;8.890;2024-03-08T13:23:33;15.55;;;9.73;;
49948;SDS011;35840;45.982;8.890;2024-03-08T13:26:06;14.95;;;9.52;;
49948;SDS011;35840;45.982;8.890;2024-03-08T13:28:33;17.73;;;11.10;;
49948;SDS011;35840;45.982;8.890;2024-03-08T13:31:04;20.38;;;11.73;;
49948;SDS011;35840;45.982;8.890;2024-03-08T13:33:37;17.63;;;11.15;;
49948;SDS011;35840;45.982;8.890;2024-03-08T13:36:06;19.45;;;11.52;;
49948;SDS011;35840;45.982;8.890;2024-03-08T13:38:44;19.60;;;11.15;;
49948;SDS011;35840;45.982;8.890;2024-03-08T13:41:12;16.98;;;11.63;;
49948;SDS011;35840;45.982;8.890;2024-03-08T13:43:41;18.55;;;11.82;;
49948;SDS011;35840;45.982;8.890;2024-03-08T13:46:08;22.85;;;11.55;;
49948;SDS011;35840;45.982;8.890;2024-03-08T13:48:36;16.98;;;11.35;;
49948;SDS011;35840;45.982;8.890;2024-03-08T13:51:07;19.17;;;11.70;;
49948;SDS011;35840;45.982;8.890;2024-03-08T13:53:39;18.08;;;11.55;;
49948;SDS011;35840;45.982;8.890;2024-03-08T13:56:06;18.73;;;11.95;;
49948;SDS011;35840;45.982;8.890;2024-03-08T13:58:37;16.80;;;11.75;;
49948;SDS011;35840;45.982;8.890;2024-03-08T14:01:06;20.50;;;13.27;;
49948;SDS011;35840;45.982;8.890;2024-03-08T14:03:39;21.38;;;13.48;;
49948;SDS011;35840;45.982;8.890;2024-03-08T14:06:09;20.70;;;13.05;;
49948;SDS011;35840;45.982;8.890;2024-03-08T14:08:51;24.40;;;12.32;;
49948;SDS011;35840;45.982;8.890;2024-03-08T14:11:17;19.15;;;11.85;;
49948;SDS011;35840;45.982;8.890;2024-03-08T14:13:46;19.15;;;12.35;;
49948;SDS011;35840;45.982;8.890;2024-03-08T14:16:14;19.65;;;12.27;;
49948;SDS011;35840;45.982;8.890;2024-03-08T14:18:42;15.00;;;10.63;;
49948;SDS011;35840;45.982;8.890;2024-03-08T14:21:08;20.40;;;12.10;;
49948;SDS011;35840;45.982;8.890;2024-03-08T14:23:37;18.15;;;11.65;;
49948;SDS011;35840;45.982;8.890;2024-03-08T14:26:03;14.70;;;10.05;;
49948;SDS011;35840;45.982;8.890;2024-03-08T14:28:33;16.92;;;10.20;;
49948;SDS011;35840;45.982;8.890;2024-03-08T14:31:01;16.92;;;10.88;;
49948;SDS011;35840;45.982;8.890;2024-03-08T14:33:33;15.75;;;10.57;;
49948;SDS011;35840;45.982;8.890;2024-03-08T14:36:00;15.40;;;10.18;;
49948;SDS011;35840;45.982;8.890;2024-03-08T14:38:27;15.45;;;10.23;;
49948;SDS011;35840;45.982;8.890;2024-03-08T14:40:54;25.02;;;10.40;;
49948;SDS011;35840;45.982;8.890;2024-03-08T14:43:22;18.13;;;10.52;;
49948;SDS011;35840;45.982;8.890;2024-03-08T14:45:49;16.45;;;9.60;;
49948;SDS011;35840;45.982;8.890;2024-03-08T14:48:17;15.77;;;10.45;;
49948;SDS011;35840;45.982;8.890;2024-03-08T14:50:44;13.50;;;9.18;;